Time;durP1;ratioP1;P1;durP2;ratioP2;P2;SDS_P1;SDS_P2;PMS_P1;PMS_P2;Temp;Humidity;BMP_temperature;BMP_pressure;BME280_temperature;BME280_humidity;BME280_pressure;Samples;Min_cycle;Max_cycle;Signal;HPM_P1;HPM_P2
2022/01/16 00:01:03;;;;;;;12.98;11.98;;;-0.20;99.90;;;;;;5081547;28;20551;-58
2022/01/16 00:06:43;;;;;;;13.70;12.50;;;-0.20;99.90;;;;;;5103412;27;20549;-57
2022/01/16 00:09:22;;;;;;;12.85;11.82;;;-0.20;99.90;;;;;;5104406;27;20558;-58
2022/01/16 00:12:05;;;;;;;12.77;11.73;;;-0.20;99.90;;;;;;5145334;27;20542;-58
2022/01/16 00:14:45;;;;;;;14.02;12.82;;;-0.20;99.90;;;;;;5124068;27;20540;-57
2022/01/16 00:17:27;;;;;;;12.52;11.55;;;-0.20;99.90;;;;;;5103747;27;20673;-58
2022/01/16 00:20:09;;;;;;;12.20;11.20;;;-0.20;99.90;;;;;;5104044;27;20626;-58
2022/01/16 00:22:49;;;;;;;12.63;11.60;;;-0.20;99.90;;;;;;5104356;27;20542;-58
2022/01/16 00:25:29;;;;;;;11.18;10.27;;;-0.20;99.90;;;;;;5125285;27;20544;-58
2022/01/16 00:28:09;;;;;;;8.85;8.18;;;-0.30;99.90;;;;;;5151958;27;20557;-58
2022/01/16 00:30:49;;;;;;;10.43;9.55;;;-0.30;99.90;;;;;;5125281;27;20947;-58
2022/01/16 00:33:28;;;;;;;9.38;8.68;;;-0.30;99.90;;;;;;5084537;27;20601;-58
2022/01/16 00:36:10;;;;;;;9.10;8.40;;;-0.30;99.90;;;;;;5145026;27;20539;-58
2022/01/16 00:38:53;;;;;;;9.55;8.75;;;-0.30;99.90;;;;;;5105011;27;21063;-58
2022/01/16 00:41:34;;;;;;;11.05;10.18;;;-0.30;99.90;;;;;;5085056;28;20944;-58
2022/01/16 00:44:14;;;;;;;10.18;9.27;;;-0.30;99.90;;;;;;5104562;27;20545;-58
2022/01/16 00:46:54;;;;;;;10.57;9.77;;;-0.30;99.90;;;;;;5104155;27;20533;-58
2022/01/16 00:49:36;;;;;;;11.10;10.20;;;-0.30;99.90;;;;;;5104274;27;20557;-58
2022/01/16 00:52:15;;;;;;;10.63;9.73;;;-0.30;99.90;;;;;;5125356;27;20536;-58
2022/01/16 00:54:58;;;;;;;11.93;10.98;;;-0.30;99.90;;;;;;5125420;27;20601;-58
2022/01/16 00:57:38;;;;;;;12.20;11.20;;;-0.20;99.90;;;;;;5083573;28;20695;-58
2022/01/16 01:00:18;;;;;;;11.45;10.55;;;-0.30;99.90;;;;;;5146049;27;20538;-58
2022/01/16 01:02:57;;;;;;;9.93;9.05;;;-0.20;99.90;;;;;;5105209;27;20958;-58
2022/01/16 01:05:38;;;;;;;9.57;8.82;;;-0.20;99.90;;;;;;5084482;27;20555;-57
2022/01/16 01:08:18;;;;;;;9.75;9.00;;;-0.30;99.90;;;;;;5084921;27;20925;-58
2022/01/16 01:10:58;;;;;;;10.38;9.57;;;-0.20;99.90;;;;;;5105263;27;20549;-57
2022/01/16 01:13:56;;;;;;;9.88;9.07;;;-0.20;99.90;;;;;;5084514;27;20548;-58
2022/01/16 01:16:50;;;;;;;11.00;10.10;;;-0.20;99.90;;;;;;5083121;27;21076;-58
2022/01/16 01:19:33;;;;;;;12.55;11.45;;;-0.20;99.90;;;;;;5084292;28;20699;-58
2022/01/16 01:22:11;;;;;;;11.13;10.13;;;-0.20;99.90;;;;;;5084955;27;20539;-57
2022/01/16 01:24:51;;;;;;;11.65;10.45;;;-0.20;99.90;;;;;;5084255;28;20660;-58
2022/01/16 01:27:33;;;;;;;11.68;10.68;;;-0.20;99.90;;;;;;5083989;28;20686;-57
2022/01/16 01:30:15;;;;;;;11.27;10.32;;;-0.20;99.90;;;;;;5125529;27;20548;-58
2022/01/16 01:32:55;;;;;;;13.15;12.05;;;-0.20;99.90;;;;;;5125765;27;20573;-58
2022/01/16 01:35:38;;;;;;;11.70;10.63;;;-0.10;99.90;;;;;;5084652;28;20676;-57
2022/01/16 01:38:20;;;;;;;12.73;11.63;;;-0.20;99.90;;;;;;5084691;28;20683;-58
2022/01/16 01:41:00;;;;;;;12.75;11.75;;;-0.20;99.90;;;;;;5104648;27;20553;-58
2022/01/16 01:52:32;;;;;;;13.65;12.43;;;-0.10;99.90;;;;;;5063673;27;21121;-58
2022/01/16 01:55:12;;;;;;;16.95;15.45;;;-0.10;99.90;;;;;;5083301;28;20551;-58
2022/01/16 01:57:52;;;;;;;12.60;11.40;;;-0.10;99.90;;;;;;5112189;27;20546;-58
2022/01/16 02:00:32;;;;;;;12.50;11.50;;;-0.10;99.90;;;;;;5104973;27;20823;-57
2022/01/16 02:03:17;;;;;;;13.18;12.07;;;-0.10;99.90;;;;;;5084452;27;20569;-58
2022/01/16 02:05:58;;;;;;;18.55;16.60;;;-0.10;99.90;;;;;;5083805;28;20549;-58
2022/01/16 02:08:37;;;;;;;13.70;12.50;;;-0.10;99.90;;;;;;5104676;27;20975;-58
2022/01/16 02:11:18;;;;;;;15.90;14.38;;;0.00;99.90;;;;;;5104869;27;21187;-58
2022/01/16 02:14:06;;;;;;;14.15;12.85;;;0.00;99.90;;;;;;5146407;27;20668;-58
2022/01/16 02:28:46;;;;;;;14.75;13.40;;;0.00;99.90;;;;;;5105048;27;20558;-58
2022/01/16 02:31:26;;;;;;;16.27;14.80;;;0.00;99.90;;;;;;5104859;27;20964;-58
2022/01/16 02:37:07;;;;;;;15.18;13.68;;;0.00;99.90;;;;;;5145243;27;21010;-58
2022/01/16 02:39:50;;;;;;;14.30;13.00;;;0.10;99.90;;;;;;5084390;28;20563;-58
2022/01/16 02:42:36;;;;;;;14.25;12.93;;;0.10;99.90;;;;;;5146340;27;20592;-56
2022/01/16 02:45:27;;;;;;;15.00;13.68;;;0.10;99.90;;;;;;5104473;27;20539;-58
2022/01/16 02:48:08;;;;;;;14.65;13.35;;;0.10;99.90;;;;;;5083533;27;20904;-57
2022/01/16 02:50:48;;;;;;;16.52;15.07;;;0.10;99.90;;;;;;5084098;28;20699;-58
2022/01/16 02:53:27;;;;;;;17.80;16.02;;;0.10;99.90;;;;;;5104913;27;21171;-58
2022/01/16 02:56:07;;;;;;;16.45;14.95;;;0.10;99.90;;;;;;5104075;27;20681;-58
2022/01/16 02:58:48;;;;;;;16.75;15.05;;;0.10;99.90;;;;;;5119787;27;20568;-58
2022/01/16 03:01:28;;;;;;;15.77;14.40;;;0.10;99.90;;;;;;5103358;27;20596;-57
2022/01/16 03:04:09;;;;;;;15.73;14.38;;;0.10;99.90;;;;;;5084156;27;21064;-58
2022/01/16 03:06:48;;;;;;;15.85;14.48;;;0.10;99.90;;;;;;5104452;27;20678;-58
2022/01/16 03:09:37;;;;;;;17.67;16.05;;;0.10;99.90;;;;;;5125256;27;20548;-58
2022/01/16 03:12:17;;;;;;;16.60;15.00;;;0.10;99.90;;;;;;5084723;28;21184;-58
2022/01/16 03:14:58;;;;;;;16.13;14.68;;;0.10;99.90;;;;;;5104852;27;20538;-58
2022/01/16 03:17:51;;;;;;;16.55;15.15;;;0.10;99.90;;;;;;5083893;28;20676;-58
2022/01/16 03:23:29;;;;;;;15.75;14.00;;;0.10;99.90;;;;;;5145827;27;20668;-58
2022/01/16 03:26:08;;;;;;;17.27;15.63;;;0.20;99.90;;;;;;5145379;27;20551;-58
2022/01/16 03:28:48;;;;;;;17.05;15.55;;;0.20;99.90;;;;;;5104891;27;20577;-58
2022/01/16 03:31:28;;;;;;;16.33;15.00;;;0.20;99.90;;;;;;5146359;27;20530;-57
2022/01/16 03:34:08;;;;;;;16.08;14.68;;;0.20;99.90;;;;;;5146192;27;20542;-58
2022/01/16 03:36:48;;;;;;;15.52;14.05;;;0.10;99.90;;;;;;5083018;27;21156;-58
2022/01/16 03:39:28;;;;;;;16.98;15.32;;;0.10;99.90;;;;;;5160678;27;20663;-57
2022/01/16 03:42:09;;;;;;;16.15;14.45;;;0.20;99.90;;;;;;5084419;28;20565;-58
2022/01/16 03:44:49;;;;;;;17.33;15.63;;;0.20;99.90;;;;;;5145289;27;20542;-58
2022/01/16 03:47:29;;;;;;;17.60;15.90;;;0.20;99.90;;;;;;5103899;27;20553;-58
2022/01/16 03:50:10;;;;;;;16.15;14.63;;;0.20;99.90;;;;;;5083923;27;20692;-58
2022/01/16 03:52:51;;;;;;;15.45;13.95;;;0.20;99.90;;;;;;5084939;28;20539;-57
2022/01/16 03:55:30;;;;;;;20.67;17.27;;;0.20;99.90;;;;;;5104491;27;20553;-56
2022/01/16 03:58:10;;;;;;;19.40;17.42;;;0.20;99.90;;;;;;5083734;28;20691;-58
2022/01/16 04:00:49;;;;;;;16.48;14.82;;;0.20;99.90;;;;;;5125404;27;20680;-58
2022/01/16 04:03:29;;;;;;;14.88;13.55;;;0.20;99.90;;;;;;5084175;27;21205;-57
2022/01/16 04:06:09;;;;;;;15.13;13.57;;;0.20;99.90;;;;;;5103883;27;20674;-58
2022/01/16 04:08:50;;;;;;;14.55;13.05;;;0.20;99.90;;;;;;5084438;27;21099;-58
2022/01/16 04:11:30;;;;;;;14.20;12.75;;;0.10;99.90;;;;;;5146132;27;20682;-58
2022/01/16 04:14:14;;;;;;;11.65;10.55;;;0.10;99.90;;;;;;5104330;27;20958;-58
2022/01/16 04:16:53;;;;;;;12.05;10.85;;;0.10;99.90;;;;;;5083778;28;21181;-57
2022/01/16 04:19:35;;;;;;;10.60;9.70;;;0.10;99.90;;;;;;5161488;27;20552;-58
2022/01/16 04:22:15;;;;;;;11.20;10.18;;;0.00;99.90;;;;;;5105134;27;20677;-58
2022/01/16 04:24:54;;;;;;;12.20;11.00;;;0.00;99.90;;;;;;5104866;27;20549;-58
2022/01/16 04:27:34;;;;;;;11.98;10.88;;;0.00;99.90;;;;;;5103899;27;20549;-58
2022/01/16 04:30:15;;;;;;;11.80;10.70;;;0.00;99.90;;;;;;5104885;27;20549;-58
2022/01/16 04:32:54;;;;;;;12.10;11.02;;;0.00;99.90;;;;;;5125575;27;20536;-58
2022/01/16 04:35:34;;;;;;;13.18;11.98;;;0.00;99.90;;;;;;5084475;27;20536;-57
2022/01/16 04:38:13;;;;;;;12.40;11.27;;;0.00;99.90;;;;;;5104664;27;20557;-57
2022/01/16 04:43:52;;;;;;;12.60;11.40;;;0.00;99.90;;;;;;5084587;27;20544;-58
2022/01/16 04:46:35;;;;;;;13.27;12.07;;;0.00;99.90;;;;;;5104175;27;21058;-57
2022/01/16 04:49:15;;;;;;;13.02;11.82;;;0.00;99.90;;;;;;5084509;27;20971;-58
2022/01/16 04:51:55;;;;;;;13.45;12.25;;;0.00;99.90;;;;;;5084577;28;20554;-57
2022/01/16 04:54:35;;;;;;;12.88;11.80;;;0.00;99.90;;;;;;5105030;27;20545;-58
2022/01/16 04:57:16;;;;;;;13.05;11.85;;;0.00;99.90;;;;;;5083734;27;20547;-58
2022/01/16 04:59:56;;;;;;;13.20;11.93;;;0.00;99.90;;;;;;5104364;27;20562;-58
2022/01/16 05:02:36;;;;;;;13.38;12.23;;;0.00;99.90;;;;;;5125865;27;20535;-58
2022/01/16 05:05:16;;;;;;;12.77;11.57;;;0.00;99.90;;;;;;5104615;27;20681;-57
2022/01/16 05:07:55;;;;;;;12.75;11.43;;;0.00;99.90;;;;;;5083310;27;20583;-58
2022/01/16 05:10:35;;;;;;;14.45;12.95;;;0.00;99.90;;;;;;5125135;27;20536;-57
2022/01/16 05:13:30;;;;;;;13.20;12.02;;;0.00;99.90;;;;;;5084738;28;20547;-57
2022/01/16 05:19:19;;;;;;;11.68;10.63;;;-0.10;99.90;;;;;;5104785;27;20553;-58
2022/01/16 05:21:59;;;;;;;12.98;11.70;;;-0.10;99.90;;;;;;5105082;27;20610;-58
2022/01/16 05:24:38;;;;;;;12.38;11.18;;;-0.10;99.90;;;;;;5085056;28;20668;-58
2022/01/16 05:27:18;;;;;;;13.93;12.27;;;-0.10;99.90;;;;;;5124595;27;20577;-58
2022/01/16 05:29:58;;;;;;;12.85;11.52;;;-0.10;99.90;;;;;;5165185;27;20671;-58
2022/01/16 05:32:38;;;;;;;13.75;12.43;;;-0.10;99.90;;;;;;5084844;27;20573;-58
2022/01/16 05:35:18;;;;;;;14.43;11.82;;;-0.10;99.90;;;;;;5104861;27;20538;-57
2022/01/16 05:37:57;;;;;;;15.48;13.98;;;-0.10;99.90;;;;;;5124966;27;20565;-57
2022/01/16 05:40:37;;;;;;;16.55;14.90;;;-0.10;99.90;;;;;;5126205;27;20544;-58
2022/01/16 05:43:17;;;;;;;17.70;14.40;;;-0.10;99.90;;;;;;5146432;27;20539;-57
2022/01/16 05:45:57;;;;;;;14.02;12.73;;;-0.10;99.90;;;;;;5146154;27;20562;-58
2022/01/16 05:48:37;;;;;;;14.95;13.45;;;-0.10;99.90;;;;;;5085218;28;21108;-58
2022/01/16 05:51:17;;;;;;;16.73;15.02;;;-0.10;99.90;;;;;;5104745;27;20553;-58
2022/01/16 05:53:57;;;;;;;20.45;15.93;;;-0.10;99.90;;;;;;5146345;27;20572;-58
2022/01/16 05:56:36;;;;;;;16.13;13.52;;;-0.10;99.90;;;;;;5124717;27;20578;-58
2022/01/16 05:59:16;;;;;;;16.58;14.40;;;-0.10;99.90;;;;;;5104843;27;20570;-57
2022/01/16 06:01:56;;;;;;;15.30;13.70;;;-0.10;99.90;;;;;;5085220;27;20889;-58
2022/01/16 06:04:36;;;;;;;14.90;13.27;;;-0.20;99.90;;;;;;5104588;27;20545;-57
2022/01/16 06:07:16;;;;;;;15.75;14.05;;;-0.20;99.90;;;;;;5079555;27;20563;-58
2022/01/16 06:09:55;;;;;;;15.35;13.82;;;-0.20;99.90;;;;;;5078447;27;20699;-58
2022/01/16 06:12:35;;;;;;;16.83;14.77;;;-0.20;99.90;;;;;;5072187;27;20557;-57
2022/01/16 06:15:15;;;;;;;18.08;14.48;;;-0.20;99.90;;;;;;5117060;27;20557;-58
2022/01/16 06:17:55;;;;;;;14.40;12.85;;;-0.20;99.90;;;;;;5123057;27;20568;-58
2022/01/16 06:20:35;;;;;;;15.65;14.02;;;-0.20;99.90;;;;;;5083448;27;20671;-57
2022/01/16 06:23:16;;;;;;;16.33;14.15;;;-0.20;99.90;;;;;;5140769;27;20662;-58
2022/01/16 06:25:58;;;;;;;18.48;13.50;;;-0.20;99.90;;;;;;5104218;27;20682;-57
2022/01/16 06:28:37;;;;;;;16.83;12.38;;;-0.20;99.90;;;;;;5084323;28;20683;-58
2022/01/16 06:31:17;;;;;;;17.05;13.65;;;-0.30;99.90;;;;;;5144883;27;20586;-58
2022/01/16 06:33:59;;;;;;;16.33;13.45;;;-0.30;99.90;;;;;;5082548;27;20680;-58
2022/01/16 06:36:40;;;;;;;15.40;13.68;;;-0.30;99.90;;;;;;5120207;27;20536;-58
2022/01/16 06:39:20;;;;;;;17.40;13.23;;;-0.30;99.90;;;;;;5104176;27;20565;-58
2022/01/16 06:42:00;;;;;;;15.95;13.63;;;-0.30;99.90;;;;;;5122236;27;20552;-58
2022/01/16 06:44:39;;;;;;;21.48;15.73;;;-0.30;99.90;;;;;;5084806;28;20687;-58
2022/01/16 06:47:19;;;;;;;16.33;14.40;;;-0.30;99.90;;;;;;5103610;27;20566;-58
2022/01/16 06:49:59;;;;;;;16.33;14.68;;;-0.30;99.90;;;;;;5084778;28;21335;-58
2022/01/16 06:52:39;;;;;;;17.25;13.95;;;-0.30;99.90;;;;;;5146269;27;20653;-58
2022/01/16 06:55:19;;;;;;;15.55;13.35;;;-0.30;99.90;;;;;;5081037;28;20680;-58
2022/01/16 06:57:59;;;;;;;13.25;11.82;;;-0.30;99.90;;;;;;5080659;27;20539;-58
2022/01/16 07:00:38;;;;;;;13.32;11.93;;;-0.30;99.90;;;;;;5143006;27;20977;-57
2022/01/16 07:03:18;;;;;;;14.10;11.98;;;-0.30;99.90;;;;;;5104127;27;20602;-57
2022/01/16 07:06:00;;;;;;;12.40;11.10;;;-0.30;99.90;;;;;;5102469;27;20615;-58
2022/01/16 07:08:39;;;;;;;15.23;13.38;;;-0.30;99.90;;;;;;5083552;27;20611;-58
2022/01/16 07:11:19;;;;;;;13.48;12.07;;;-0.30;99.90;;;;;;5083628;27;20547;-58
2022/01/16 07:13:59;;;;;;;13.85;12.43;;;-0.30;99.90;;;;;;5145726;27;20653;-58
2022/01/16 07:16:39;;;;;;;14.30;12.43;;;-0.30;99.90;;;;;;5124031;27;20540;-58
2022/01/16 07:19:19;;;;;;;11.90;10.75;;;-0.30;99.90;;;;;;5079013;27;20707;-58
2022/01/16 07:21:59;;;;;;;10.38;9.38;;;-0.30;99.90;;;;;;5083069;27;20601;-57
2022/01/16 07:24:38;;;;;;;10.55;9.35;;;-0.30;99.90;;;;;;5079366;27;20576;-57
2022/01/16 07:27:19;;;;;;;11.95;10.82;;;-0.20;99.90;;;;;;5096882;27;20562;-58
2022/01/16 07:29:58;;;;;;;14.45;12.68;;;-0.20;99.90;;;;;;5071527;28;20587;-57
2022/01/16 07:32:39;;;;;;;10.52;9.63;;;-0.20;99.90;;;;;;5083618;28;20687;-57
2022/01/16 07:35:18;;;;;;;14.15;11.20;;;-0.20;99.90;;;;;;5124933;27;20943;-58
2022/01/16 07:37:58;;;;;;;13.35;11.90;;;-0.20;99.90;;;;;;5101545;27;21066;-57
2022/01/16 07:40:38;;;;;;;11.20;9.93;;;-0.20;99.90;;;;;;5091536;27;20677;-58
2022/01/16 07:43:17;;;;;;;12.02;10.82;;;-0.20;99.90;;;;;;5103499;27;20670;-59
2022/01/16 07:45:57;;;;;;;12.13;9.23;;;-0.10;99.90;;;;;;5103567;27;20562;-59
2022/01/16 07:48:37;;;;;;;13.45;11.13;;;-0.10;99.90;;;;;;5074450;27;20557;-60
2022/01/16 07:51:17;;;;;;;11.57;10.40;;;0.00;99.90;;;;;;5100431;27;20557;-60
2022/01/16 07:53:56;;;;;;;10.13;9.13;;;0.00;99.90;;;;;;5060328;27;20622;-59
2022/01/16 07:56:37;;;;;;;10.05;9.05;;;0.00;99.90;;;;;;5126831;27;20540;-59
2022/01/16 07:59:17;;;;;;;9.73;8.85;;;0.00;99.90;;;;;;5149782;27;20550;-59
2022/01/16 08:01:56;;;;;;;9.48;8.57;;;0.00;99.90;;;;;;5104382;27;20542;-59
2022/01/16 08:04:36;;;;;;;10.13;8.70;;;0.00;99.90;;;;;;5104957;27;20591;-59
2022/01/16 08:07:16;;;;;;;9.23;8.43;;;0.00;99.90;;;;;;5083723;28;21192;-59
2022/01/16 08:09:56;;;;;;;8.05;7.30;;;0.00;99.90;;;;;;5094414;27;20569;-58
2022/01/16 08:12:35;;;;;;;8.15;7.50;;;0.00;99.90;;;;;;5104294;27;20542;-59
2022/01/16 08:15:15;;;;;;;8.55;7.75;;;0.00;99.90;;;;;;5103918;27;20537;-59
2022/01/16 08:17:55;;;;;;;9.18;8.35;;;0.00;99.90;;;;;;5101676;27;21054;-59
2022/01/16 08:20:35;;;;;;;9.73;8.82;;;-0.10;99.90;;;;;;5145021;27;20538;-59
2022/01/16 08:23:15;;;;;;;8.95;8.05;;;0.00;99.90;;;;;;5122948;27;20543;-58
2022/01/16 08:25:54;;;;;;;9.18;8.27;;;0.00;99.90;;;;;;5124776;27;20656;-59
2022/01/16 08:28:34;;;;;;;8.88;8.18;;;0.00;99.90;;;;;;5099961;27;20583;-58
2022/01/16 08:31:14;;;;;;;8.80;8.00;;;0.00;99.90;;;;;;5123324;27;20532;-59
2022/01/16 08:33:54;;;;;;;8.00;7.30;;;0.10;99.90;;;;;;5123175;27;20544;-59
2022/01/16 08:36:34;;;;;;;7.45;6.75;;;0.00;99.90;;;;;;5083256;28;20867;-59
2022/01/16 08:39:14;;;;;;;8.43;7.70;;;0.10;99.90;;;;;;5165987;27;20552;-59
2022/01/16 08:41:53;;;;;;;10.18;9.25;;;0.00;99.90;;;;;;5082289;28;20558;-59
2022/01/16 08:44:33;;;;;;;9.48;8.57;;;0.00;99.90;;;;;;5063208;27;20732;-59
2022/01/16 08:47:13;;;;;;;9.23;8.43;;;0.00;99.90;;;;;;5089303;27;20557;-59
2022/01/16 08:49:53;;;;;;;9.75;8.85;;;0.00;99.90;;;;;;5124652;27;20891;-59
2022/01/16 08:52:33;;;;;;;9.98;9.07;;;0.00;99.90;;;;;;5118555;27;20698;-60
2022/01/16 08:55:13;;;;;;;9.52;8.48;;;0.00;99.90;;;;;;5117650;27;20564;-59
2022/01/16 08:57:52;;;;;;;10.88;9.88;;;0.00;99.90;;;;;;5145873;27;20889;-59
2022/01/16 09:00:33;;;;;;;9.23;8.43;;;0.00;99.90;;;;;;5102824;27;21034;-60
2022/01/16 09:03:12;;;;;;;9.55;8.75;;;0.00;99.90;;;;;;5129489;27;20540;-59
2022/01/16 09:05:52;;;;;;;11.38;10.27;;;0.00;99.90;;;;;;5141057;27;20552;-59
2022/01/16 09:08:32;;;;;;;9.68;8.88;;;0.10;99.90;;;;;;5098834;27;20615;-59
2022/01/16 09:11:11;;;;;;;10.90;9.95;;;0.10;99.90;;;;;;5104083;27;21054;-59
2022/01/16 09:13:52;;;;;;;10.32;9.43;;;0.00;99.90;;;;;;5146312;27;21004;-59
2022/01/16 09:16:33;;;;;;;9.93;9.02;;;0.00;99.90;;;;;;5144525;27;20538;-59
2022/01/16 09:19:13;;;;;;;9.10;8.20;;;0.10;99.90;;;;;;5124634;27;20687;-59
2022/01/16 09:21:52;;;;;;;10.02;9.13;;;0.20;99.90;;;;;;5081988;28;20555;-59
2022/01/16 09:24:33;;;;;;;10.30;9.30;;;0.20;99.90;;;;;;5083119;27;20959;-58
2022/01/16 09:27:12;;;;;;;9.88;9.07;;;0.20;99.90;;;;;;5080827;28;20994;-59
2022/01/16 09:29:52;;;;;;;9.93;8.95;;;0.30;99.90;;;;;;5158124;27;20557;-59
2022/01/16 09:32:33;;;;;;;9.45;8.65;;;0.30;99.90;;;;;;5129799;27;20540;-58
2022/01/16 09:35:13;;;;;;;9.00;8.30;;;0.40;99.90;;;;;;5082904;27;20544;-59
2022/01/16 09:37:54;;;;;;;9.15;8.35;;;0.30;99.90;;;;;;5079358;28;20559;-59
2022/01/16 09:40:35;;;;;;;10.15;9.23;;;0.30;99.90;;;;;;5140048;27;20556;-59
2022/01/16 09:43:15;;;;;;;9.32;8.52;;;0.40;99.90;;;;;;5144866;27;20538;-59
2022/01/16 09:45:56;;;;;;;9.98;9.15;;;0.50;99.90;;;;;;5082751;27;21341;-59
2022/01/16 09:48:36;;;;;;;9.23;8.48;;;0.60;99.90;;;;;;5147749;27;20613;-60
2022/01/16 09:51:15;;;;;;;9.85;8.95;;;0.70;99.90;;;;;;5077822;28;20699;-58
2022/01/16 09:53:55;;;;;;;9.18;8.35;;;0.70;99.90;;;;;;5082419;28;20570;-59
2022/01/16 09:56:35;;;;;;;8.05;7.25;;;0.60;99.90;;;;;;5149707;27;20551;-59
2022/01/16 09:59:15;;;;;;;10.27;9.27;;;0.60;99.90;;;;;;5103443;27;21083;-59
2022/01/16 10:01:55;;;;;;;8.05;7.25;;;0.60;99.90;;;;;;5119965;27;20569;-59
2022/01/16 10:04:36;;;;;;;9.00;8.20;;;0.70;99.90;;;;;;5139790;27;20557;-58
2022/01/16 10:07:18;;;;;;;9.40;8.60;;;0.70;99.90;;;;;;5115386;27;20896;-59
2022/01/16 10:10:10;;;;;;;9.93;9.10;;;0.80;99.90;;;;;;5103940;27;20674;-59
2022/01/16 10:12:51;;;;;;;9.13;8.32;;;0.90;99.90;;;;;;5124317;27;20540;-58
2022/01/16 10:15:31;;;;;;;11.23;9.65;;;1.00;99.90;;;;;;5102632;27;20954;-60
2022/01/16 10:18:11;;;;;;;11.00;9.93;;;1.00;99.90;;;;;;5133205;27;20694;-59
2022/01/16 10:20:51;;;;;;;9.40;8.48;;;1.10;99.90;;;;;;5099601;27;20693;-60
2022/01/16 10:23:38;;;;;;;8.98;8.15;;;1.20;99.90;;;;;;5083033;28;20695;-59
2022/01/16 10:26:21;;;;;;;10.27;8.95;;;1.30;99.90;;;;;;5102923;27;20669;-59
2022/01/16 10:29:02;;;;;;;10.30;9.32;;;1.30;99.90;;;;;;5103638;27;20571;-59
2022/01/16 10:31:42;;;;;;;10.40;9.43;;;1.30;99.90;;;;;;5103884;27;21183;-59
2022/01/16 10:34:28;;;;;;;12.18;11.07;;;1.30;99.90;;;;;;5141244;27;20680;-59
2022/01/16 10:37:19;;;;;;;10.52;9.63;;;1.30;99.90;;;;;;5069841;28;21062;-59
2022/01/16 10:40:02;;;;;;;11.50;10.50;;;1.30;99.90;;;;;;5121971;27;21006;-58
2022/01/16 10:42:43;;;;;;;11.13;10.13;;;1.30;99.90;;;;;;5099844;27;20562;-59
2022/01/16 10:45:26;;;;;;;11.27;10.23;;;1.30;99.90;;;;;;5112957;27;20605;-59
2022/01/16 10:48:07;;;;;;;11.77;10.57;;;1.10;99.90;;;;;;5079214;28;20576;-59
2022/01/16 10:50:47;;;;;;;11.38;10.32;;;1.10;99.90;;;;;;5143352;27;20550;-59
2022/01/16 10:53:29;;;;;;;11.98;10.98;;;1.10;99.90;;;;;;5091444;27;21212;-59
2022/01/16 10:56:09;;;;;;;14.23;12.95;;;1.10;99.90;;;;;;5065031;27;20573;-59
2022/01/16 10:58:50;;;;;;;12.35;11.35;;;1.10;99.90;;;;;;5103145;27;20553;-59
2022/01/16 11:01:30;;;;;;;13.30;12.13;;;1.10;99.90;;;;;;5144195;27;20546;-59
2022/01/16 11:04:10;;;;;;;15.45;13.95;;;1.10;99.90;;;;;;5083847;28;21072;-59
2022/01/16 11:07:02;;;;;;;16.02;14.30;;;1.10;99.90;;;;;;5080395;27;20957;-59
2022/01/16 11:09:43;;;;;;;15.02;13.57;;;1.10;99.90;;;;;;5046003;28;20626;-60
2022/01/16 11:12:23;;;;;;;14.85;13.40;;;1.10;99.90;;;;;;5103571;27;20904;-59
2022/01/16 11:15:03;;;;;;;13.40;12.20;;;1.10;99.90;;;;;;5103214;27;20670;-59
2022/01/16 11:17:43;;;;;;;16.83;15.05;;;1.10;99.90;;;;;;5103653;27;20538;-60
2022/01/16 11:20:29;;;;;;;16.90;15.20;;;1.10;99.90;;;;;;5124880;27;21081;-59
2022/01/16 11:23:16;;;;;;;17.00;15.15;;;1.20;99.90;;;;;;5146405;27;20539;-59
2022/01/16 11:25:58;;;;;;;17.75;15.95;;;1.20;99.90;;;;;;5124850;27;20668;-59
2022/01/16 11:28:39;;;;;;;19.23;16.67;;;1.20;99.90;;;;;;5147321;27;20577;-59
2022/01/16 11:31:19;;;;;;;20.15;17.75;;;1.20;99.90;;;;;;5099116;27;20693;-59
2022/01/16 11:33:58;;;;;;;19.73;17.00;;;1.20;99.90;;;;;;5103618;27;20542;-59
2022/01/16 11:36:40;;;;;;;19.35;17.25;;;1.30;99.90;;;;;;5104051;27;20545;-59
2022/01/16 11:39:20;;;;;;;21.20;18.95;;;1.30;99.90;;;;;;5084190;28;20871;-59
2022/01/16 11:41:59;;;;;;;20.05;18.15;;;1.30;99.90;;;;;;5122085;27;20974;-59
2022/01/16 11:44:50;;;;;;;23.25;17.88;;;1.30;99.90;;;;;;5083858;27;20547;-59
2022/01/16 11:47:30;;;;;;;21.15;18.75;;;1.30;99.90;;;;;;5082740;28;21044;-59
2022/01/16 11:50:12;;;;;;;20.63;18.42;;;1.20;99.90;;;;;;5124814;27;21017;-59
2022/01/16 11:52:52;;;;;;;21.15;18.88;;;1.20;99.90;;;;;;5104964;27;20558;-59
2022/01/16 11:55:35;;;;;;;20.40;18.05;;;1.20;99.90;;;;;;5084200;27;20536;-59
2022/01/16 11:58:14;;;;;;;21.60;19.38;;;1.10;99.90;;;;;;5120258;27;20685;-59
2022/01/16 12:00:54;;;;;;;24.38;20.65;;;1.10;99.90;;;;;;5104552;27;21305;-59
2022/01/16 12:03:37;;;;;;;27.77;22.55;;;1.10;99.90;;;;;;5081082;27;20684;-59
2022/01/16 12:06:33;;;;;;;23.00;19.90;;;1.20;99.90;;;;;;5080483;27;21244;-59
2022/01/16 12:09:53;;;;;;;24.90;21.05;;;1.10;99.90;;;;;;5150166;27;20551;-58
2022/01/16 12:12:39;;;;;;;24.10;19.52;;;1.10;99.90;;;;;;5125547;27;20540;-59
2022/01/16 12:15:21;;;;;;;24.45;20.30;;;1.00;99.90;;;;;;5102220;27;20557;-59
2022/01/16 12:18:01;;;;;;;22.40;18.95;;;1.00;99.90;;;;;;5095083;27;21200;-59
2022/01/16 12:20:40;;;;;;;22.52;20.15;;;1.00;99.90;;;;;;5070831;28;21195;-60
2022/01/16 12:23:30;;;;;;;22.17;18.73;;;1.00;99.90;;;;;;5143648;27;20661;-59
2022/01/16 12:26:09;;;;;;;23.38;20.92;;;1.00;99.90;;;;;;5104497;27;20673;-59
2022/01/16 12:28:49;;;;;;;20.13;17.25;;;0.90;99.90;;;;;;5092741;27;21045;-59
2022/01/16 12:31:35;;;;;;;21.42;19.23;;;0.90;99.90;;;;;;5124889;27;21360;-59
2022/01/16 12:34:43;;;;;;;16.92;15.20;;;0.90;99.90;;;;;;5083300;27;20574;-59
2022/01/16 12:37:44;;;;;;;21.13;17.52;;;0.90;99.90;;;;;;5103813;27;20650;-59
2022/01/16 12:40:23;;;;;;;18.13;16.08;;;0.90;99.90;;;;;;5104261;27;20657;-59
2022/01/16 12:43:04;;;;;;;18.52;16.60;;;0.90;99.90;;;;;;5082133;27;20578;-59
2022/01/16 12:45:44;;;;;;;19.15;16.75;;;0.80;99.90;;;;;;5083267;28;20695;-58
2022/01/16 12:48:24;;;;;;;15.48;13.35;;;0.80;99.90;;;;;;5083146;28;20696;-59
2022/01/16 12:51:06;;;;;;;16.05;14.48;;;0.80;99.90;;;;;;5075152;28;20672;-59
2022/01/16 12:53:47;;;;;;;15.95;14.45;;;0.70;99.90;;;;;;5133485;27;21058;-59
2022/01/16 12:56:30;;;;;;;17.85;16.02;;;0.70;99.90;;;;;;5103211;27;20673;-59
2022/01/16 12:59:16;;;;;;;16.35;14.65;;;0.60;99.90;;;;;;5092113;27;20593;-59
2022/01/16 13:01:58;;;;;;;11.20;10.10;;;0.60;99.90;;;;;;5104942;27;20603;-59
2022/01/16 13:04:39;;;;;;;11.60;10.45;;;0.60;99.90;;;;;;5084389;28;21034;-59
2022/01/16 13:07:20;;;;;;;12.00;10.90;;;0.60;99.90;;;;;;5130374;27;20709;-60
2022/01/16 13:09:59;;;;;;;10.45;9.45;;;0.60;99.90;;;;;;5097966;27;20732;-59
2022/01/16 13:12:38;;;;;;;9.02;8.30;;;0.60;99.90;;;;;;5123509;27;20556;-59
2022/01/16 13:15:22;;;;;;;9.48;8.57;;;0.60;99.90;;;;;;5095987;27;20713;-59
2022/01/16 13:18:10;;;;;;;8.40;7.60;;;0.60;99.90;;;;;;5115012;27;20538;-59
2022/01/16 13:21:04;;;;;;;8.65;7.85;;;0.50;99.90;;;;;;5083430;28;21188;-59
2022/01/16 13:23:53;;;;;;;9.00;8.13;;;0.50;99.90;;;;;;5121091;27;20552;-59
2022/01/16 13:26:34;;;;;;;10.65;9.63;;;0.50;99.90;;;;;;5103391;27;20670;-59
2022/01/16 13:29:15;;;;;;;10.38;9.40;;;0.50;99.90;;;;;;5088230;27;20571;-58
2022/01/16 13:31:54;;;;;;;6.93;6.32;;;0.50;99.90;;;;;;5151089;27;20911;-59
2022/01/16 13:34:37;;;;;;;9.73;9.02;;;0.50;99.90;;;;;;5082257;27;20493;-59
2022/01/16 13:37:20;;;;;;;8.02;7.43;;;0.40;99.90;;;;;;5115359;27;21187;-59
2022/01/16 13:40:03;;;;;;;9.18;8.27;;;0.40;99.90;;;;;;5100420;27;21045;-59
2022/01/16 13:42:53;;;;;;;11.38;10.27;;;0.40;99.90;;;;;;5118933;27;20540;-59
2022/01/16 13:45:38;;;;;;;8.95;8.15;;;0.40;99.90;;;;;;5081821;28;20660;-59
2022/01/16 13:48:19;;;;;;;9.13;8.35;;;0.40;99.90;;;;;;5102125;27;20693;-59
2022/01/16 13:51:01;;;;;;;9.35;8.55;;;0.40;99.90;;;;;;5120457;27;21232;-59
2022/01/16 13:53:43;;;;;;;9.60;8.80;;;0.40;99.90;;;;;;5082906;27;21321;-59
2022/01/16 13:56:28;;;;;;;12.18;11.07;;;0.40;99.90;;;;;;5083837;27;20575;-60
2022/01/16 13:59:11;;;;;;;10.00;9.00;;;0.40;99.90;;;;;;5143714;27;20682;-59
2022/01/16 14:01:56;;;;;;;10.50;9.23;;;0.50;99.90;;;;;;5080081;28;20547;-59
2022/01/16 14:04:40;;;;;;;9.77;8.80;;;0.50;99.90;;;;;;5104564;27;20674;-59
2022/01/16 14:07:23;;;;;;;8.77;7.97;;;0.60;99.90;;;;;;5082209;28;20667;-59
2022/01/16 14:10:03;;;;;;;8.85;8.05;;;0.60;99.90;;;;;;5158975;27;20551;-59
2022/01/16 14:12:56;;;;;;;10.07;9.27;;;0.60;99.90;;;;;;5123514;27;20421;-59
2022/01/16 14:15:36;;;;;;;10.18;9.23;;;0.70;99.90;;;;;;5090006;28;20654;-59
2022/01/16 14:18:38;;;;;;;11.05;10.05;;;0.70;99.90;;;;;;5078471;27;20636;-58
2022/01/16 14:24:15;;;;;;;10.25;9.25;;;0.60;99.90;;;;;;5121077;27;20554;-59
2022/01/16 14:26:58;;;;;;;8.25;7.50;;;0.60;99.90;;;;;;5081643;27;20579;-58
2022/01/16 14:29:39;;;;;;;8.10;7.32;;;0.60;99.90;;;;;;5120887;27;20709;-59